createdAt,value
2023-01-09T00:00:38.038Z,90.78
2023-01-09T00:03:05.612Z,90.93
2023-01-09T00:05:33.232Z,91.17
2023-01-09T00:08:00.843Z,90.99
2023-01-09T00:10:28.553Z,91.41
2023-01-09T00:12:57.550Z,91.42
2023-01-09T00:15:25.146Z,91.60
2023-01-09T00:17:52.735Z,91.91
2023-01-09T00:20:20.421Z,91.95
2023-01-09T00:22:47.984Z,92.10
2023-01-09T00:25:15.701Z,91.79
2023-01-09T00:27:43.267Z,91.39
2023-01-09T00:30:13.314Z,91.56
2023-01-09T00:32:41.502Z,91.12
2023-01-09T00:35:12.836Z,91.23
2023-01-09T00:37:40.481Z,91.05
2023-01-09T00:40:08.723Z,89.09
2023-01-09T00:42:36.766Z,89.12
2023-01-09T00:45:08.938Z,87.64
2023-01-09T00:47:42.769Z,87.22
2023-01-09T00:50:14.808Z,87.26
2023-01-09T00:52:43.471Z,86.91
2023-01-09T00:55:11.550Z,86.44
2023-01-09T00:57:39.299Z,86.39
2023-01-09T01:00:09.337Z,85.91
2023-01-09T01:02:38.392Z,84.91
2023-01-09T01:05:24.482Z,84.92
2023-01-09T01:07:52.115Z,84.78
2023-01-09T01:10:21.436Z,84.74
2023-01-09T01:12:49.839Z,84.42
2023-01-09T01:15:19.710Z,84.32
2023-01-09T01:17:49.125Z,83.79
2023-01-09T01:20:19.861Z,83.57
2023-01-09T01:22:47.943Z,82.68
2023-01-09T01:25:17.429Z,84.03
2023-01-09T01:27:45.587Z,83.36
2023-01-09T01:30:15.957Z,83.90
2023-01-09T01:32:44.223Z,83.75
2023-01-09T01:35:13.232Z,84.21
2023-01-09T01:37:41.087Z,83.98
2023-01-09T01:40:11.798Z,84.29
2023-01-09T01:42:46.590Z,83.89
2023-01-09T01:45:16.635Z,83.87
2023-01-09T01:47:51.232Z,83.92
2023-01-09T01:50:28.612Z,83.72
2023-01-09T01:53:06.566Z,84.25
2023-01-09T01:55:36.078Z,84.12
2023-01-09T01:58:08.021Z,84.80
2023-01-09T02:00:39.827Z,84.85
2023-01-09T02:03:08.511Z,85.46
2023-01-09T02:05:39.863Z,85.58
2023-01-09T02:08:08.378Z,86.10
2023-01-09T02:10:35.947Z,85.66
2023-01-09T02:13:04.449Z,87.44
2023-01-09T02:15:37.874Z,87.85
2023-01-09T02:18:28.303Z,87.74
2023-01-09T02:21:05.253Z,86.71
2023-01-09T02:24:03.425Z,85.56
2023-01-09T02:27:04.862Z,86.05
2023-01-09T02:30:10.991Z,85.31
2023-01-09T02:32:49.807Z,86.25
2023-01-09T02:35:36.714Z,86.27
2023-01-09T02:38:15.046Z,85.38
2023-01-09T02:40:47.948Z,86.61
2023-01-09T02:43:16.213Z,87.35
2023-01-09T02:45:43.839Z,87.65
2023-01-09T02:48:13.224Z,86.73
2023-01-09T02:50:44.572Z,85.40
2023-01-09T02:53:53.959Z,85.77
2023-01-09T02:56:36.596Z,85.31
2023-01-09T02:59:25.719Z,84.86
2023-01-09T03:02:15.216Z,83.93
2023-01-09T03:04:54.630Z,83.92
2023-01-09T03:07:26.512Z,84.20
2023-01-09T03:10:01.207Z,82.93
2023-01-09T03:12:33.019Z,83.08
2023-01-09T03:15:03.646Z,82.98
2023-01-09T03:17:38.087Z,82.69
2023-01-09T03:20:11.230Z,83.55
2023-01-09T03:22:40.872Z,82.47
2023-01-09T03:25:09.196Z,82.85
2023-01-09T03:27:36.891Z,82.35
2023-01-09T03:30:05.102Z,82.20
2023-01-09T03:32:32.685Z,82.73
2023-01-09T03:35:01.879Z,82.25
2023-01-09T03:37:30.781Z,82.25
2023-01-09T03:39:58.361Z,81.85
2023-01-09T03:42:25.951Z,82.23
2023-01-09T03:44:53.626Z,82.21
2023-01-09T03:47:21.246Z,81.93
2023-01-09T03:49:48.865Z,81.74
2023-01-09T03:52:16.524Z,80.42
2023-01-09T03:54:45.464Z,81.00
2023-01-09T03:57:13.073Z,80.67
2023-01-09T03:59:40.819Z,81.22
2023-01-09T04:02:08.628Z,81.04
2023-01-09T04:04:36.324Z,81.98
2023-01-09T04:07:03.860Z,81.79
2023-01-09T04:09:31.593Z,81.91
2023-01-09T04:12:00.561Z,81.82
2023-01-09T04:14:28.162Z,82.28
2023-01-09T04:16:55.760Z,82.06
2023-01-09T04:19:23.317Z,81.31
2023-01-09T04:21:50.874Z,81.29
2023-01-09T04:24:18.510Z,80.71
2023-01-09T04:26:46.124Z,80.20
2023-01-09T04:29:15.044Z,80.35
2023-01-09T04:31:42.678Z,79.78
2023-01-09T04:34:10.294Z,79.55
2023-01-09T04:36:38.749Z,79.61
2023-01-09T04:39:06.759Z,79.00
2023-01-09T04:41:52.471Z,78.83
2023-01-09T04:44:26.116Z,77.92
2023-01-09T04:46:54.978Z,78.16
2023-01-09T04:49:22.887Z,77.75
2023-01-09T04:51:50.962Z,78.72
2023-01-09T04:54:18.738Z,77.43
2023-01-09T04:56:46.433Z,76.99
2023-01-09T04:59:14.139Z,77.34
2023-01-09T05:01:43.136Z,77.75
2023-01-09T05:04:11.143Z,77.16
2023-01-09T05:06:38.817Z,77.58
2023-01-09T05:09:06.651Z,76.97
2023-01-09T05:11:34.299Z,76.40
2023-01-09T05:14:01.840Z,76.75
2023-01-09T05:16:30.813Z,76.28
2023-01-09T05:19:00.568Z,75.84
2023-01-09T05:21:28.850Z,76.22
2023-01-09T05:23:56.506Z,76.23
2023-01-09T05:26:24.917Z,76.23
2023-01-09T05:28:52.524Z,76.43
2023-01-09T05:31:22.277Z,75.28
2023-01-09T05:33:50.142Z,75.76
2023-01-09T05:36:19.003Z,76.13
2023-01-09T05:38:46.675Z,76.21
2023-01-09T05:41:14.217Z,75.45
2023-01-09T05:43:41.946Z,75.71
2023-01-09T05:46:09.769Z,75.94
2023-01-09T05:48:37.965Z,76.22
2023-01-09T05:51:05.715Z,75.62
2023-01-09T05:53:34.655Z,75.80
2023-01-09T05:56:02.218Z,76.15
2023-01-09T05:58:29.882Z,76.48
2023-01-09T06:00:57.525Z,76.31
2023-01-09T06:03:25.090Z,76.85
2023-01-09T06:05:52.751Z,76.39
2023-01-09T06:08:20.331Z,77.04
2023-01-09T06:10:49.217Z,76.77
2023-01-09T06:13:16.814Z,76.89
2023-01-09T06:15:44.422Z,77.11
2023-01-09T06:18:12.049Z,77.10
2023-01-09T06:20:39.673Z,77.75
2023-01-09T06:23:07.271Z,77.33
2023-01-09T06:25:35.079Z,77.16
2023-01-09T06:28:04.448Z,77.01
2023-01-09T06:30:32.024Z,77.46
2023-01-09T06:32:59.648Z,77.55
2023-01-09T06:35:27.335Z,77.86
2023-01-09T06:37:54.915Z,77.48
2023-01-09T06:40:22.476Z,77.48
2023-01-09T06:42:50.559Z,78.35
2023-01-09T06:45:19.620Z,78.75
2023-01-09T06:47:47.241Z,78.47
2023-01-09T06:50:14.903Z,78.59
2023-01-09T06:52:42.500Z,78.32
2023-01-09T06:55:10.581Z,78.37
2023-01-09T06:57:38.123Z,78.25
2023-01-09T07:00:06.662Z,78.61
2023-01-09T07:02:35.738Z,77.82
2023-01-09T07:05:07.506Z,77.94
2023-01-09T07:07:35.547Z,77.97
2023-01-09T07:10:03.260Z,77.95
2023-01-09T07:12:30.851Z,77.91
2023-01-09T07:14:59.029Z,77.73
2023-01-09T07:17:26.624Z,77.64
2023-01-09T07:19:55.669Z,77.93
2023-01-09T07:22:23.441Z,78.60
2023-01-09T07:24:51.028Z,78.70
2023-01-09T07:27:18.621Z,78.70
2023-01-09T07:29:46.184Z,79.09
2023-01-09T07:32:13.806Z,79.66
2023-01-09T07:34:41.456Z,79.33
2023-01-09T07:37:10.353Z,79.59
2023-01-09T07:39:37.900Z,80.06
2023-01-09T07:42:05.514Z,81.05
2023-01-09T07:44:34.377Z,80.58
2023-01-09T07:47:02.021Z,80.97
2023-01-09T07:49:29.634Z,80.96
2023-01-09T07:51:57.243Z,81.13
2023-01-09T07:54:26.217Z,81.72
2023-01-09T07:56:53.971Z,81.53
2023-01-09T07:59:21.784Z,82.12
2023-01-09T08:01:49.477Z,82.42
2023-01-09T08:04:17.256Z,82.29
2023-01-09T08:06:44.859Z,82.57
2023-01-09T08:09:13.820Z,82.25
2023-01-09T08:11:42.816Z,83.02
2023-01-09T08:14:10.531Z,82.77
2023-01-09T08:16:38.119Z,83.98
2023-01-09T08:19:06.445Z,82.69
2023-01-09T08:21:34.223Z,82.86
2023-01-09T08:24:01.871Z,82.99
2023-01-09T08:26:29.440Z,82.45
2023-01-09T08:28:58.402Z,81.52
2023-01-09T08:31:26.045Z,82.39
2023-01-09T08:33:53.784Z,82.31
2023-01-09T08:36:21.399Z,82.10
2023-01-09T08:38:48.984Z,82.08
2023-01-09T08:41:39.530Z,82.10
2023-01-09T08:44:26.357Z,81.97
2023-01-09T08:47:09.322Z,81.63
2023-01-09T08:49:38.578Z,81.54
2023-01-09T08:52:07.464Z,81.43
2023-01-09T08:54:36.825Z,81.88
2023-01-09T08:57:05.001Z,81.90
2023-01-09T08:59:34.328Z,81.55
2023-01-09T09:02:02.022Z,82.02
2023-01-09T09:04:29.747Z,82.37
2023-01-09T09:06:57.308Z,82.40
2023-01-09T09:09:25.680Z,82.90
2023-01-09T09:11:53.334Z,83.30
2023-01-09T09:14:38.399Z,82.98
2023-01-09T09:17:07.382Z,82.87
2023-01-09T09:19:35.146Z,82.93
2023-01-09T09:22:02.799Z,82.75
2023-01-09T09:24:30.410Z,82.75
2023-01-09T09:26:58.268Z,81.50
2023-01-09T09:29:25.930Z,81.95
2023-01-09T09:31:53.616Z,80.24
2023-01-09T09:34:23.291Z,80.49
2023-01-09T09:36:50.893Z,80.30
2023-01-09T09:39:18.683Z,79.54
2023-01-09T09:42:25.557Z,79.32
2023-01-09T09:45:11.325Z,79.31
2023-01-09T09:47:48.265Z,78.75
2023-01-09T09:50:45.750Z,78.16
2023-01-09T09:53:19.832Z,78.48
2023-01-09T09:55:50.780Z,78.28
2023-01-09T09:58:26.031Z,78.04
2023-01-09T10:00:54.524Z,78.41
2023-01-09T10:03:33.998Z,77.53
2023-01-09T10:06:08.578Z,78.42
2023-01-09T10:08:46.373Z,79.31
2023-01-09T10:11:18.853Z,79.43
2023-01-09T10:14:05.947Z,80.10
2023-01-09T10:16:56.183Z,80.69
2023-01-09T10:19:38.554Z,80.50
2023-01-09T10:22:18.467Z,79.88
2023-01-09T10:24:59.979Z,80.39
2023-01-09T10:27:40.871Z,80.43
2023-01-09T10:30:27.847Z,81.26
2023-01-09T10:33:07.703Z,81.26
2023-01-09T10:35:51.795Z,81.36
2023-01-09T10:38:26.372Z,81.14
2023-01-09T10:41:01.697Z,80.87
2023-01-09T10:43:35.582Z,81.01
2023-01-09T10:46:07.018Z,80.55
2023-01-09T10:48:36.730Z,79.25
2023-01-09T10:51:14.096Z,79.68
2023-01-09T10:53:46.479Z,78.39
2023-01-09T10:56:20.892Z,78.68
2023-01-09T10:58:49.404Z,79.57
2023-01-09T11:01:20.782Z,80.37
2023-01-09T11:03:48.393Z,79.77
2023-01-09T11:06:22.755Z,80.02
2023-01-09T11:08:56.452Z,79.19
2023-01-09T11:11:35.037Z,80.49
2023-01-09T11:14:08.251Z,80.73
2023-01-09T11:16:35.919Z,80.34
2023-01-09T11:19:03.743Z,79.73
2023-01-09T11:21:35.856Z,80.07
2023-01-09T11:24:29.492Z,80.58
2023-01-09T11:27:23.603Z,78.93
2023-01-09T11:30:14.119Z,79.33
2023-01-09T11:32:42.176Z,79.79
2023-01-09T11:35:18.780Z,79.41
2023-01-09T11:37:48.339Z,79.89
2023-01-09T11:40:22.759Z,79.24
2023-01-09T11:43:06.053Z,78.51
2023-01-09T11:45:36.798Z,78.85
2023-01-09T11:48:18.511Z,79.37
2023-01-09T11:50:56.005Z,78.29
2023-01-09T11:53:24.532Z,78.67
2023-01-09T11:56:00.929Z,78.16
2023-01-09T11:58:33.276Z,78.09
2023-01-09T12:01:13.420Z,78.65
2023-01-09T12:04:00.370Z,77.58
2023-01-09T12:06:35.299Z,76.39
2023-01-09T12:09:07.528Z,76.00
2023-01-09T12:11:44.827Z,76.89
2023-01-09T12:14:33.203Z,76.42
2023-01-09T12:17:36.221Z,75.29
2023-01-09T12:20:22.155Z,75.99
2023-01-09T12:22:57.851Z,76.19
2023-01-09T12:25:39.603Z,77.37
2023-01-09T12:28:26.836Z,78.75
2023-01-09T12:31:04.210Z,78.31
2023-01-09T12:33:41.591Z,78.68
2023-01-09T12:36:23.235Z,78.77
2023-01-09T12:38:56.054Z,77.92
2023-01-09T12:41:54.598Z,77.96
2023-01-09T12:44:41.018Z,77.54
2023-01-09T12:47:25.979Z,76.55
2023-01-09T12:50:03.010Z,76.07
2023-01-09T12:52:36.007Z,75.83
2023-01-09T12:55:14.052Z,73.72
2023-01-09T12:57:44.989Z,72.38
2023-01-09T13:00:19.706Z,70.97
2023-01-09T13:03:03.673Z,70.36
2023-01-09T13:05:38.237Z,70.30
2023-01-09T13:08:09.411Z,68.74
2023-01-09T13:10:42.110Z,70.16
2023-01-09T13:13:17.896Z,70.68
2023-01-09T13:15:51.940Z,69.98
2023-01-09T13:18:23.939Z,70.48
2023-01-09T13:20:53.859Z,70.40
2023-01-09T13:23:29.276Z,69.98
2023-01-09T13:26:00.927Z,68.75
2023-01-09T13:28:33.391Z,68.79
2023-01-09T13:31:27.776Z,68.63
2023-01-09T13:33:58.958Z,67.69
2023-01-09T13:36:29.375Z,67.24
2023-01-09T13:38:58.910Z,68.78
2023-01-09T13:41:45.879Z,70.09
2023-01-09T13:44:28.418Z,69.77
2023-01-09T13:46:59.371Z,70.24
2023-01-09T13:49:31.872Z,70.72
2023-01-09T13:52:02.639Z,70.66
2023-01-09T13:55:07.696Z,71.35
2023-01-09T13:57:36.560Z,71.37
2023-01-09T14:00:44.590Z,71.92
2023-01-09T14:03:22.572Z,70.07
2023-01-09T14:06:12.933Z,70.22
2023-01-09T14:08:42.732Z,70.30
2023-01-09T14:11:18.450Z,70.25
2023-01-09T14:13:47.933Z,70.43
2023-01-09T14:16:23.619Z,70.49
2023-01-09T14:18:54.983Z,70.65
2023-01-09T14:21:22.620Z,71.07
2023-01-09T14:23:59.226Z,70.47
2023-01-09T14:26:44.474Z,71.42
2023-01-09T14:29:44.651Z,71.38
2023-01-09T14:32:43.831Z,71.78
2023-01-09T14:35:26.859Z,71.68
2023-01-09T14:38:05.785Z,72.36
2023-01-09T14:40:35.358Z,73.70
2023-01-09T14:43:17.915Z,71.84
2023-01-09T14:45:50.002Z,71.53
2023-01-09T14:48:18.107Z,71.41
2023-01-09T14:50:55.070Z,71.47
2023-01-09T14:53:25.489Z,71.69
2023-01-09T14:55:57.970Z,72.38
2023-01-09T14:58:28.272Z,71.52
2023-01-09T15:01:01.386Z,72.00
2023-01-09T15:03:32.922Z,72.17
2023-01-09T15:06:02.408Z,72.83
2023-01-09T15:08:30.708Z,73.12
2023-01-09T15:11:00.197Z,73.73
2023-01-09T15:13:32.950Z,73.82
2023-01-09T15:16:01.744Z,74.01
2023-01-09T15:18:32.872Z,74.39
2023-01-09T15:21:03.835Z,74.81
2023-01-09T15:23:32.346Z,75.95
2023-01-09T15:26:14.256Z,76.00
2023-01-09T15:28:43.953Z,76.71
2023-01-09T15:31:16.267Z,76.82
2023-01-09T15:33:45.933Z,76.33
2023-01-09T15:36:19.059Z,76.39
2023-01-09T15:38:47.666Z,76.69
2023-01-09T15:41:35.086Z,76.03
2023-01-09T15:44:04.839Z,76.21
2023-01-09T15:46:32.904Z,76.43
2023-01-09T15:49:01.455Z,76.09
2023-01-09T15:51:33.283Z,76.59
2023-01-09T15:54:01.153Z,76.55
2023-01-09T15:56:30.717Z,76.42
2023-01-09T15:58:59.678Z,76.25
2023-01-09T16:01:30.853Z,76.51
2023-01-09T16:04:07.543Z,76.66
2023-01-09T16:06:39.331Z,76.81
2023-01-09T16:09:17.149Z,76.87
2023-01-09T16:11:48.248Z,76.95
2023-01-09T16:14:21.075Z,76.48
2023-01-09T16:16:51.683Z,76.62
2023-01-09T16:19:33.961Z,76.05
2023-01-09T16:22:04.930Z,76.70
2023-01-09T16:24:40.849Z,76.35
2023-01-09T16:27:23.810Z,76.76
2023-01-09T16:29:57.615Z,76.06
2023-01-09T16:32:28.246Z,76.88
2023-01-09T16:34:57.324Z,76.37
2023-01-09T16:37:27.150Z,76.36
2023-01-09T16:40:36.564Z,76.71
2023-01-09T16:43:08.458Z,77.05
2023-01-09T16:45:38.272Z,77.48
2023-01-09T16:48:13.611Z,77.61
2023-01-09T16:50:41.721Z,78.18
2023-01-09T16:53:15.905Z,78.21
2023-01-09T16:55:43.645Z,78.46
2023-01-09T16:58:16.408Z,79.08
2023-01-09T17:00:45.408Z,79.81
2023-01-09T17:03:13.451Z,79.58
2023-01-09T17:05:41.067Z,81.30
2023-01-09T17:08:20.773Z,80.88
2023-01-09T17:10:48.414Z,81.41
2023-01-09T17:13:16.037Z,80.69
2023-01-09T17:15:44.318Z,80.75
2023-01-09T17:18:16.120Z,81.22
2023-01-09T17:20:45.782Z,80.73
2023-01-09T17:23:13.641Z,80.11
2023-01-09T17:26:01.803Z,80.88
2023-01-09T17:28:33.772Z,80.65
2023-01-09T17:31:02.060Z,81.47
2023-01-09T17:33:29.645Z,80.80
2023-01-09T17:35:57.729Z,80.91
2023-01-09T17:38:25.531Z,81.24
2023-01-09T17:40:55.660Z,80.85
2023-01-09T17:43:23.386Z,79.72
2023-01-09T17:45:51.492Z,80.54
2023-01-09T17:48:21.483Z,79.73
2023-01-09T17:50:50.057Z,78.93
2023-01-09T17:53:20.512Z,79.68
2023-01-09T17:55:48.175Z,79.52
2023-01-09T17:58:28.983Z,79.90
2023-01-09T18:00:57.226Z,79.55
2023-01-09T18:03:30.873Z,79.82
2023-01-09T18:05:58.641Z,79.20
2023-01-09T18:08:26.266Z,79.98
2023-01-09T18:10:53.900Z,80.02
2023-01-09T18:13:21.581Z,79.64
2023-01-09T18:15:50.572Z,79.35
2023-01-09T18:18:19.956Z,79.80
2023-01-09T18:20:47.663Z,79.47
2023-01-09T18:23:16.355Z,79.59
2023-01-09T18:25:44.519Z,80.44
2023-01-09T18:28:15.061Z,80.61
2023-01-09T18:30:45.000Z,80.93
2023-01-09T18:33:14.478Z,80.04
2023-01-09T18:35:42.593Z,80.17
2023-01-09T18:38:10.667Z,80.08
2023-01-09T18:40:38.519Z,80.27
2023-01-09T18:43:07.767Z,79.96
2023-01-09T18:45:35.780Z,79.89
2023-01-09T18:48:03.450Z,79.44
2023-01-09T18:50:32.342Z,80.39
2023-01-09T18:53:00.414Z,80.13
2023-01-09T18:55:28.172Z,79.79
2023-01-09T18:57:56.779Z,80.35
2023-01-09T19:00:25.161Z,79.90
2023-01-09T19:02:52.999Z,80.57
2023-01-09T19:05:20.698Z,81.20
2023-01-09T19:07:49.933Z,80.07
2023-01-09T19:10:18.376Z,80.08
2023-01-09T19:12:46.101Z,80.18
2023-01-09T19:15:13.854Z,79.95
2023-01-09T19:17:41.895Z,79.53
2023-01-09T19:20:10.841Z,79.51
2023-01-09T19:22:38.544Z,79.05
2023-01-09T19:25:08.522Z,79.21
2023-01-09T19:27:36.220Z,79.66
2023-01-09T19:30:03.937Z,79.19
2023-01-09T19:32:31.983Z,79.17
2023-01-09T19:34:59.928Z,78.77
2023-01-09T19:37:27.901Z,78.81
2023-01-09T19:39:55.503Z,78.53
2023-01-09T19:42:24.512Z,78.92
2023-01-09T19:44:52.190Z,79.31
2023-01-09T19:47:19.878Z,79.18
2023-01-09T19:49:47.614Z,78.86
2023-01-09T19:52:15.581Z,78.62
2023-01-09T19:54:43.347Z,78.21
2023-01-09T19:57:11.153Z,77.86
2023-01-09T19:59:40.642Z,78.06
2023-01-09T20:02:10.625Z,77.84
2023-01-09T20:04:38.641Z,78.48
2023-01-09T20:07:06.441Z,78.25
2023-01-09T20:09:34.120Z,79.22
2023-01-09T20:12:03.949Z,78.47
2023-01-09T20:14:31.579Z,78.60
2023-01-09T20:17:04.190Z,78.47
2023-01-09T20:19:32.658Z,78.32
2023-01-09T20:22:01.203Z,78.74
2023-01-09T20:24:29.000Z,78.28
2023-01-09T20:26:56.661Z,77.71
2023-01-09T20:29:24.908Z,78.50
2023-01-09T20:31:52.539Z,77.80
2023-01-09T20:34:21.541Z,78.01
2023-01-09T20:36:49.456Z,77.72
2023-01-09T20:39:17.124Z,77.47
2023-01-09T20:41:44.727Z,77.34
2023-01-09T20:44:14.509Z,77.87
2023-01-09T20:46:44.708Z,77.96
2023-01-09T20:49:13.986Z,77.94
2023-01-09T20:51:46.019Z,77.65
2023-01-09T20:54:14.044Z,77.81
2023-01-09T20:56:41.808Z,77.34
2023-01-09T20:59:13.014Z,77.42
2023-01-09T21:01:41.486Z,78.07
2023-01-09T21:04:09.646Z,78.42
2023-01-09T21:06:37.325Z,78.51
2023-01-09T21:09:06.736Z,79.25
2023-01-09T21:11:34.554Z,79.53
2023-01-09T21:14:02.514Z,79.74
2023-01-09T21:16:30.230Z,79.69
2023-01-09T21:18:57.820Z,79.85
2023-01-09T21:22:17.135Z,80.36
2023-01-09T21:24:49.647Z,79.48
2023-01-09T21:27:17.850Z,79.36
2023-01-09T21:29:46.609Z,79.44
2023-01-09T21:32:14.373Z,78.96
2023-01-09T21:34:42.152Z,79.02
2023-01-09T21:37:09.819Z,78.10
2023-01-09T21:39:37.520Z,78.33
2023-01-09T21:42:24.376Z,78.91
2023-01-09T21:45:24.364Z,79.56
2023-01-09T21:47:52.081Z,79.59
2023-01-09T21:50:19.812Z,80.31
2023-01-09T21:52:47.389Z,80.32
2023-01-09T21:55:15.162Z,80.44
2023-01-09T21:57:44.068Z,80.33
2023-01-09T22:00:12.821Z,80.78
2023-01-09T22:02:41.064Z,81.06
2023-01-09T22:05:09.156Z,80.59
2023-01-09T22:07:37.112Z,80.60
2023-01-09T22:10:05.486Z,80.45
2023-01-09T22:12:33.088Z,80.48
2023-01-09T22:15:02.160Z,80.57
2023-01-09T22:17:30.525Z,80.31
2023-01-09T22:19:58.096Z,79.92
2023-01-09T22:22:25.643Z,79.67
2023-01-09T22:24:53.717Z,80.21
2023-01-09T22:27:21.248Z,80.26
2023-01-09T22:29:49.019Z,80.01
2023-01-09T22:32:18.363Z,80.06
2023-01-09T22:34:45.933Z,80.00
2023-01-09T22:37:13.779Z,79.82
2023-01-09T22:39:41.421Z,79.81
2023-01-09T22:42:09.011Z,80.40
2023-01-09T22:44:36.587Z,79.61
2023-01-09T22:47:04.378Z,80.30
2023-01-09T22:49:41.093Z,79.92
2023-01-09T22:52:19.152Z,79.27
2023-01-09T22:54:50.580Z,79.62
2023-01-09T22:57:18.251Z,79.43
2023-01-09T22:59:45.820Z,79.53
2023-01-09T23:02:13.510Z,81.13
2023-01-09T23:04:42.474Z,80.39
2023-01-09T23:07:10.066Z,80.17
2023-01-09T23:09:37.727Z,80.62
2023-01-09T23:12:06.659Z,80.34
2023-01-09T23:14:36.611Z,80.82
2023-01-09T23:17:04.423Z,80.46
2023-01-09T23:19:32.586Z,80.98
2023-01-09T23:22:02.430Z,80.98
2023-01-09T23:24:30.445Z,81.08
2023-01-09T23:26:58.568Z,81.07
2023-01-09T23:29:26.970Z,81.17
2023-01-09T23:31:54.774Z,81.16
2023-01-09T23:34:24.319Z,81.61
2023-01-09T23:36:53.459Z,81.97
2023-01-09T23:39:22.433Z,82.35
2023-01-09T23:42:07.777Z,83.12
2023-01-09T23:44:36.389Z,83.55
2023-01-09T23:47:04.228Z,83.90
2023-01-09T23:49:31.850Z,83.80
2023-01-09T23:52:01.645Z,84.38
2023-01-09T23:54:30.672Z,83.92
2023-01-09T23:56:58.606Z,83.68
2023-01-09T23:59:26.267Z,84.71
